Airfield :
LOGIN :

Register | Disclaimer

   EN    FR    IT 

 










Legend :    VFR   Marginal VFR   IFR   Intensive IFR   Very Intensive IFR
Visi :
Ceiling :
>= 8 km
>= 3000ft
5 to 8 km
1000 to 3000 ft
1500m to 5 km
500 to 1000 ft
800 to 1500m
200 to 500 ft
< 800m
< 200 ft
Symbols :   Thunderstorms  Fog  Heavy snow  Heavy precipitations  Wind > 20 kt
SIGMETs :     Misc.  Thunderstorms  Icing  Turbulence  Mountain Waves  Volcanic Ashes







- Airport Elevation : 659 ft
- IATA code : LYN
- Download approach charts


LFLY - Lyon Bron

CURRENT METAR :
  • 141030Z AUTO 35009KT 340V060 9999 SCT027 SCT032 BKN064 23/16 Q1018 NOSIG

EXPIRED METARs :
  • 141000Z AUTO 33013KT 9999 FEW025 SCT054 BKN084 22/15 Q1018 NOSIG
  • 140930Z AUTO 35007KT 320V040 9999 BKN026 BKN035 OVC100 22/15 Q1018 NOSIG
  • 140900Z AUTO 35004KT 280V050 9999 FEW026/// SCT033/// BKN056/// ///TCU 22/16 Q1017 BECMG FEW014 BKN025
  • 140830Z AUTO 33008KT 9999 BKN026/// BKN033/// BKN040/// ///TCU 21/15 Q1017 BECMG FEW014 BKN025
  • 140800Z AUTO 30006KT 9999 BKN024 BKN032 OVC041 20/15 Q1017 TEMPO SCT020TCU

TAF TAF LFLY
Valid from the 14 at 06:00 until the 15 at 06:00 UTC


140500Z 1406/1506 34005KT 9999 FEW014 BKN025
TEMPO 1406/1409 -SHRA SCT020TCU
PROB40
TEMPO 1406/1408 BKN014
BECMG 1414/1416 36012KT CAVOK
TEMPO 1422/1506 VRB03KT
ATIS : +33 4 72 15 87 96
No reported NOTAMs for that airfield.
1 SIGMET reported for the Marseille FIR (LFMM) :
 
Embedded thunderstorms
LFMM SIGMET 3 VALID 140930/141200 LFPW
LFMM MARSEILLE FIR/UIR EMBD TS OBS WI N4000 E00800 - N3900 E00800 - N3900 E00445 - N4015 E00530 - N4000 E00800 TOP FL400 STNR NC=



MET'MAP, your aeronautical weather chart ! - Copyright ORBIFLY December 2007 - Disclaimer

ORBIFLY MET'MAP TEAM :

Programming & Development : Alexandra Zaïnal
Concept & Development : Baudouin d'Aumeries
Co-Development & Prog : Marc-Olivier Méhu
Technical & hardware support : Manuel Goepfert

Contact : metmap@orbifly.com




SOURCES & CREDITS :

   NOAA